sensor_id;sensor_type;location;lat;lon;timestamp;pressure;altitude;pressure_sealevel;temperature;humidity
36190;BME280;22232;50.914;13.858;2023-05-21T00:02:21;98056.38;;;14.49;100.00
36190;BME280;22232;50.914;13.858;2023-05-21T00:04:49;98062.09;;;14.52;100.00
36190;BME280;22232;50.914;13.858;2023-05-21T00:07:17;98060.09;;;14.48;100.00
36190;BME280;22232;50.914;13.858;2023-05-21T00:09:45;98049.00;;;14.39;100.00
36190;BME280;22232;50.914;13.858;2023-05-21T00:12:12;98052.94;;;14.31;100.00
36190;BME280;22232;50.914;13.858;2023-05-21T00:14:40;98056.13;;;14.28;100.00
36190;BME280;22232;50.914;13.858;2023-05-21T00:17:07;98049.69;;;14.29;100.00
36190;BME280;22232;50.914;13.858;2023-05-21T00:19:35;98046.75;;;14.31;100.00
36190;BME280;22232;50.914;13.858;2023-05-21T00:22:03;98049.06;;;14.22;100.00
36190;BME280;22232;50.914;13.858;2023-05-21T00:24:30;98043.38;;;14.18;100.00
36190;BME280;22232;50.914;13.858;2023-05-21T00:26:58;98044.88;;;14.09;100.00
36190;BME280;22232;50.914;13.858;2023-05-21T00:29:26;98040.31;;;14.10;100.00
36190;BME280;22232;50.914;13.858;2023-05-21T00:31:53;98033.66;;;14.12;100.00
36190;BME280;22232;50.914;13.858;2023-05-21T00:34:22;98035.66;;;14.22;100.00
36190;BME280;22232;50.914;13.858;2023-05-21T00:36:49;98039.00;;;14.12;100.00
36190;BME280;22232;50.914;13.858;2023-05-21T00:39:19;98023.72;;;14.13;100.00
36190;BME280;22232;50.914;13.858;2023-05-21T00:41:47;98023.66;;;14.08;100.00
36190;BME280;22232;50.914;13.858;2023-05-21T00:44:15;98024.94;;;14.05;100.00
36190;BME280;22232;50.914;13.858;2023-05-21T00:46:44;98021.09;;;14.18;100.00
36190;BME280;22232;50.914;13.858;2023-05-21T00:49:15;98025.22;;;14.26;100.00
36190;BME280;22232;50.914;13.858;2023-05-21T00:51:43;98019.66;;;14.32;100.00
36190;BME280;22232;50.914;13.858;2023-05-21T00:54:11;98025.50;;;14.46;100.00
36190;BME280;22232;50.914;13.858;2023-05-21T00:56:39;98027.56;;;14.61;100.00
36190;BME280;22232;50.914;13.858;2023-05-21T00:59:07;98026.13;;;14.53;100.00
36190;BME280;22232;50.914;13.858;2023-05-21T01:01:35;98026.09;;;14.31;100.00
36190;BME280;22232;50.914;13.858;2023-05-21T01:04:03;98018.25;;;14.25;100.00
36190;BME280;22232;50.914;13.858;2023-05-21T01:06:31;98022.22;;;14.22;100.00
36190;BME280;22232;50.914;13.858;2023-05-21T01:09:02;98024.22;;;14.10;100.00
36190;BME280;22232;50.914;13.858;2023-05-21T01:11:39;98020.25;;;14.12;100.00
36190;BME280;22232;50.914;13.858;2023-05-21T01:14:09;98027.53;;;14.17;100.00
36190;BME280;22232;50.914;13.858;2023-05-21T01:16:40;98014.22;;;14.27;100.00
36190;BME280;22232;50.914;13.858;2023-05-21T01:19:10;98012.31;;;14.44;100.00
36190;BME280;22232;50.914;13.858;2023-05-21T01:21:43;98012.31;;;14.44;100.00
36190;BME280;22232;50.914;13.858;2023-05-21T01:24:13;98010.63;;;14.38;100.00
36190;BME280;22232;50.914;13.858;2023-05-21T01:26:41;98007.00;;;14.50;100.00
36190;BME280;22232;50.914;13.858;2023-05-21T01:29:11;98007.94;;;14.60;100.00
36190;BME280;22232;50.914;13.858;2023-05-21T01:31:55;98012.78;;;14.58;100.00
36190;BME280;22232;50.914;13.858;2023-05-21T01:34:54;98013.00;;;14.35;100.00
36190;BME280;22232;50.914;13.858;2023-05-21T01:37:29;98001.97;;;14.31;100.00
36190;BME280;22232;50.914;13.858;2023-05-21T01:43:05;97999.00;;;14.11;100.00
36190;BME280;22232;50.914;13.858;2023-05-21T01:45:35;97994.16;;;14.08;100.00
36190;BME280;22232;50.914;13.858;2023-05-21T01:48:07;97991.47;;;14.08;100.00
36190;BME280;22232;50.914;13.858;2023-05-21T01:50:36;97990.72;;;14.12;100.00
36190;BME280;22232;50.914;13.858;2023-05-21T01:53:04;97992.34;;;14.13;100.00
36190;BME280;22232;50.914;13.858;2023-05-21T01:55:32;97982.22;;;14.20;100.00
36190;BME280;22232;50.914;13.858;2023-05-21T01:58:00;97978.75;;;14.20;100.00
36190;BME280;22232;50.914;13.858;2023-05-21T02:00:29;97979.34;;;14.27;100.00
36190;BME280;22232;50.914;13.858;2023-05-21T02:02:59;97981.03;;;14.33;100.00
36190;BME280;22232;50.914;13.858;2023-05-21T02:05:28;97977.44;;;14.22;100.00
36190;BME280;22232;50.914;13.858;2023-05-21T02:07:55;97975.75;;;14.16;100.00
36190;BME280;22232;50.914;13.858;2023-05-21T02:10:23;97976.81;;;14.15;100.00
36190;BME280;22232;50.914;13.858;2023-05-21T02:12:51;97983.00;;;14.16;100.00
36190;BME280;22232;50.914;13.858;2023-05-21T02:15:18;97977.16;;;14.24;100.00
36190;BME280;22232;50.914;13.858;2023-05-21T02:17:46;97978.81;;;14.25;100.00
36190;BME280;22232;50.914;13.858;2023-05-21T02:20:14;97976.63;;;14.22;100.00
36190;BME280;22232;50.914;13.858;2023-05-21T02:22:46;97982.59;;;14.29;100.00
36190;BME280;22232;50.914;13.858;2023-05-21T02:25:16;97980.72;;;14.30;100.00
36190;BME280;22232;50.914;13.858;2023-05-21T02:27:44;97982.09;;;14.32;100.00
36190;BME280;22232;50.914;13.858;2023-05-21T02:30:14;97982.59;;;14.29;100.00
36190;BME280;22232;50.914;13.858;2023-05-21T02:32:42;97970.47;;;14.21;100.00
36190;BME280;22232;50.914;13.858;2023-05-21T02:35:11;97972.31;;;14.21;100.00
36190;BME280;22232;50.914;13.858;2023-05-21T02:37:39;97979.63;;;14.26;100.00
36190;BME280;22232;50.914;13.858;2023-05-21T02:40:07;97981.31;;;14.32;100.00
36190;BME280;22232;50.914;13.858;2023-05-21T02:42:39;97974.00;;;14.27;100.00
36190;BME280;22232;50.914;13.858;2023-05-21T02:45:11;97968.31;;;14.23;100.00
36190;BME280;22232;50.914;13.858;2023-05-21T02:47:41;97977.66;;;14.21;100.00
36190;BME280;22232;50.914;13.858;2023-05-21T02:50:09;97975.88;;;14.27;100.00
36190;BME280;22232;50.914;13.858;2023-05-21T02:52:43;97972.31;;;14.21;100.00
36190;BME280;22232;50.914;13.858;2023-05-21T02:55:11;97967.94;;;14.15;100.00
36190;BME280;22232;50.914;13.858;2023-05-21T02:57:39;97968.69;;;14.10;100.00
36190;BME280;22232;50.914;13.858;2023-05-21T03:00:07;97961.38;;;14.06;100.00
36190;BME280;22232;50.914;13.858;2023-05-21T03:02:37;97965.91;;;14.00;100.00
36190;BME280;22232;50.914;13.858;2023-05-21T03:05:06;97962.47;;;14.05;100.00
36190;BME280;22232;50.914;13.858;2023-05-21T03:07:33;97963.84;;;14.07;100.00
36190;BME280;22232;50.914;13.858;2023-05-21T03:10:01;97952.03;;;14.08;100.00
36190;BME280;22232;50.914;13.858;2023-05-21T03:12:28;97957.16;;;14.10;100.00
36190;BME280;22232;50.914;13.858;2023-05-21T03:14:58;97959.38;;;14.18;100.00
36190;BME280;22232;50.914;13.858;2023-05-21T03:17:27;97956.28;;;14.26;100.00
36190;BME280;22232;50.914;13.858;2023-05-21T03:19:54;97958.31;;;14.41;100.00
36190;BME280;22232;50.914;13.858;2023-05-21T03:22:22;97957.03;;;14.43;100.00
36190;BME280;22232;50.914;13.858;2023-05-21T03:24:49;97960.94;;;14.36;100.00
36190;BME280;22232;50.914;13.858;2023-05-21T03:27:17;97958.38;;;14.24;100.00
36190;BME280;22232;50.914;13.858;2023-05-21T03:29:47;97962.75;;;14.30;100.00
36190;BME280;22232;50.914;13.858;2023-05-21T03:32:15;97959.44;;;14.45;100.00
36190;BME280;22232;50.914;13.858;2023-05-21T03:34:45;97969.53;;;14.55;100.00
36190;BME280;22232;50.914;13.858;2023-05-21T03:37:13;97968.75;;;14.59;100.00
36190;BME280;22232;50.914;13.858;2023-05-21T03:39:42;97969.72;;;14.75;100.00
36190;BME280;22232;50.914;13.858;2023-05-21T03:42:09;97969.41;;;14.72;100.00
36190;BME280;22232;50.914;13.858;2023-05-21T03:44:43;97960.13;;;14.57;100.00
36190;BME280;22232;50.914;13.858;2023-05-21T03:47:33;97965.25;;;14.59;100.00
36190;BME280;22232;50.914;13.858;2023-05-21T03:50:06;97951.56;;;14.60;100.00
36190;BME280;22232;50.914;13.858;2023-05-21T03:52:34;97963.69;;;14.63;100.00
36190;BME280;22232;50.914;13.858;2023-05-21T03:55:02;97964.84;;;14.72;100.00
36190;BME280;22232;50.914;13.858;2023-05-21T03:57:29;97960.84;;;14.75;100.00
36190;BME280;22232;50.914;13.858;2023-05-21T03:59:57;97970.13;;;14.89;100.00
36190;BME280;22232;50.914;13.858;2023-05-21T04:02:28;97962.16;;;14.99;100.00
36190;BME280;22232;50.914;13.858;2023-05-21T04:04:57;97973.47;;;15.01;100.00
36190;BME280;22232;50.914;13.858;2023-05-21T04:07:24;97969.81;;;15.12;100.00
36190;BME280;22232;50.914;13.858;2023-05-21T04:09:53;97964.28;;;15.29;100.00
36190;BME280;22232;50.914;13.858;2023-05-21T04:12:20;97959.88;;;15.50;100.00
36190;BME280;22232;50.914;13.858;2023-05-21T04:14:48;97958.41;;;15.70;100.00
36190;BME280;22232;50.914;13.858;2023-05-21T04:17:17;97968.81;;;16.03;100.00
36190;BME280;22232;50.914;13.858;2023-05-21T04:19:45;97965.66;;;16.17;100.00
36190;BME280;22232;50.914;13.858;2023-05-21T04:22:13;97971.94;;;16.38;100.00
36190;BME280;22232;50.914;13.858;2023-05-21T04:24:41;97970.09;;;16.64;100.00
36190;BME280;22232;50.914;13.858;2023-05-21T04:27:16;97962.84;;;16.69;100.00
36190;BME280;22232;50.914;13.858;2023-05-21T04:29:44;97966.41;;;17.01;100.00
36190;BME280;22232;50.914;13.858;2023-05-21T04:32:12;97960.22;;;17.46;100.00
36190;BME280;22232;50.914;13.858;2023-05-21T04:34:41;97950.19;;;17.93;100.00
36190;BME280;22232;50.914;13.858;2023-05-21T04:37:09;97951.78;;;18.58;100.00
36190;BME280;22232;50.914;13.858;2023-05-21T04:39:37;97956.03;;;19.14;100.00
36190;BME280;22232;50.914;13.858;2023-05-21T04:42:04;97947.22;;;19.62;100.00
36190;BME280;22232;50.914;13.858;2023-05-21T04:44:32;97952.28;;;20.22;100.00
36190;BME280;22232;50.914;13.858;2023-05-21T04:47:00;97947.06;;;20.68;100.00
36190;BME280;22232;50.914;13.858;2023-05-21T04:49:28;97952.31;;;21.16;100.00
36190;BME280;22232;50.914;13.858;2023-05-21T04:51:56;97954.25;;;21.48;100.00
36190;BME280;22232;50.914;13.858;2023-05-21T04:54:24;97955.81;;;21.36;100.00
36190;BME280;22232;50.914;13.858;2023-05-21T04:56:52;97954.34;;;21.43;100.00
36190;BME280;22232;50.914;13.858;2023-05-21T04:59:19;97957.06;;;21.57;100.00
36190;BME280;22232;50.914;13.858;2023-05-21T05:01:48;97953.16;;;21.63;100.00
36190;BME280;22232;50.914;13.858;2023-05-21T05:04:15;97960.34;;;21.73;100.00
36190;BME280;22232;50.914;13.858;2023-05-21T05:06:43;97946.50;;;21.42;100.00
36190;BME280;22232;50.914;13.858;2023-05-21T05:09:10;97955.44;;;21.42;100.00
36190;BME280;22232;50.914;13.858;2023-05-21T05:11:38;97944.66;;;21.84;100.00
36190;BME280;22232;50.914;13.858;2023-05-21T05:14:06;97949.38;;;22.47;100.00
36190;BME280;22232;50.914;13.858;2023-05-21T05:16:34;97944.34;;;22.90;100.00
36190;BME280;22232;50.914;13.858;2023-05-21T05:19:02;97943.69;;;22.71;100.00
36190;BME280;22232;50.914;13.858;2023-05-21T05:21:30;97942.16;;;23.38;100.00
36190;BME280;22232;50.914;13.858;2023-05-21T05:23:59;97933.91;;;23.06;100.00
36190;BME280;22232;50.914;13.858;2023-05-21T05:26:30;97947.91;;;23.13;100.00
36190;BME280;22232;50.914;13.858;2023-05-21T05:28:59;97942.69;;;22.67;100.00
36190;BME280;22232;50.914;13.858;2023-05-21T05:31:26;97939.66;;;22.18;100.00
36190;BME280;22232;50.914;13.858;2023-05-21T05:33:54;97938.94;;;22.13;100.00
36190;BME280;22232;50.914;13.858;2023-05-21T05:36:23;97943.22;;;21.59;100.00
36190;BME280;22232;50.914;13.858;2023-05-21T05:38:51;97944.22;;;21.49;100.00
36190;BME280;22232;50.914;13.858;2023-05-21T05:41:19;97941.44;;;22.09;100.00
36190;BME280;22232;50.914;13.858;2023-05-21T05:43:48;97937.31;;;21.98;100.00
36190;BME280;22232;50.914;13.858;2023-05-21T05:46:17;97920.91;;;21.75;100.00
36190;BME280;22232;50.914;13.858;2023-05-21T05:48:45;97927.06;;;21.95;100.00
36190;BME280;22232;50.914;13.858;2023-05-21T05:51:13;97934.91;;;22.10;100.00
36190;BME280;22232;50.914;13.858;2023-05-21T05:53:41;97932.16;;;22.52;100.00
36190;BME280;22232;50.914;13.858;2023-05-21T05:56:10;97935.09;;;22.41;100.00
36190;BME280;22232;50.914;13.858;2023-05-21T05:58:38;97934.13;;;22.74;100.00
36190;BME280;22232;50.914;13.858;2023-05-21T06:01:09;97938.56;;;23.06;100.00
36190;BME280;22232;50.914;13.858;2023-05-21T06:03:37;97926.75;;;23.10;100.00
36190;BME280;22232;50.914;13.858;2023-05-21T06:06:10;97932.97;;;23.56;98.61
36190;BME280;22232;50.914;13.858;2023-05-21T06:08:38;97938.13;;;23.97;100.00
36190;BME280;22232;50.914;13.858;2023-05-21T06:11:06;97928.16;;;24.33;99.76
36190;BME280;22232;50.914;13.858;2023-05-21T06:13:34;97928.06;;;24.64;89.35
36190;BME280;22232;50.914;13.858;2023-05-21T06:16:03;97928.53;;;24.66;92.96
36190;BME280;22232;50.914;13.858;2023-05-21T06:18:32;97929.50;;;24.87;90.29
36190;BME280;22232;50.914;13.858;2023-05-21T06:20:59;97926.78;;;25.05;86.28
36190;BME280;22232;50.914;13.858;2023-05-21T06:23:28;97916.50;;;25.28;92.80
36190;BME280;22232;50.914;13.858;2023-05-21T06:25:55;97928.03;;;25.33;79.36
36190;BME280;22232;50.914;13.858;2023-05-21T06:28:24;97921.81;;;25.15;86.66
36190;BME280;22232;50.914;13.858;2023-05-21T06:30:53;97925.69;;;25.70;87.54
36190;BME280;22232;50.914;13.858;2023-05-21T06:33:21;97927.47;;;26.13;79.96
36190;BME280;22232;50.914;13.858;2023-05-21T06:35:49;97929.03;;;26.44;82.35
36190;BME280;22232;50.914;13.858;2023-05-21T06:38:17;97924.28;;;26.32;69.93
36190;BME280;22232;50.914;13.858;2023-05-21T06:40:44;97933.81;;;26.26;74.06
36190;BME280;22232;50.914;13.858;2023-05-21T06:43:24;97933.94;;;25.53;70.97
36190;BME280;22232;50.914;13.858;2023-05-21T06:46:12;97931.75;;;25.93;74.03
36190;BME280;22232;50.914;13.858;2023-05-21T06:48:40;97931.63;;;25.81;75.22
36190;BME280;22232;50.914;13.858;2023-05-21T06:51:07;97938.72;;;25.64;82.74
36190;BME280;22232;50.914;13.858;2023-05-21T06:53:35;97939.13;;;25.37;75.39
36190;BME280;22232;50.914;13.858;2023-05-21T06:56:02;97929.41;;;25.66;73.61
36190;BME280;22232;50.914;13.858;2023-05-21T06:58:41;97932.09;;;25.18;77.75
36190;BME280;22232;50.914;13.858;2023-05-21T07:01:09;97940.91;;;24.89;86.95
36190;BME280;22232;50.914;13.858;2023-05-21T07:03:38;97938.81;;;24.69;89.42
36190;BME280;22232;50.914;13.858;2023-05-21T07:06:07;97947.31;;;24.50;88.31
36190;BME280;22232;50.914;13.858;2023-05-21T07:08:35;97941.56;;;24.12;88.32
36190;BME280;22232;50.914;13.858;2023-05-21T07:11:03;97940.03;;;23.88;90.93
36190;BME280;22232;50.914;13.858;2023-05-21T07:13:31;97941.66;;;23.98;91.67
36190;BME280;22232;50.914;13.858;2023-05-21T07:15:58;97932.13;;;24.18;92.79
36190;BME280;22232;50.914;13.858;2023-05-21T07:18:26;97941.41;;;24.17;89.45
36190;BME280;22232;50.914;13.858;2023-05-21T07:20:54;97943.78;;;24.10;92.91
36190;BME280;22232;50.914;13.858;2023-05-21T07:23:21;97940.78;;;24.20;94.01
36190;BME280;22232;50.914;13.858;2023-05-21T07:25:49;97941.44;;;24.25;94.67
36190;BME280;22232;50.914;13.858;2023-05-21T07:28:18;97938.75;;;23.94;93.65
36190;BME280;22232;50.914;13.858;2023-05-21T07:30:46;97942.81;;;24.06;91.61
36190;BME280;22232;50.914;13.858;2023-05-21T07:33:19;97938.41;;;23.87;93.89
36190;BME280;22232;50.914;13.858;2023-05-21T07:35:48;97938.28;;;23.92;93.58
36190;BME280;22232;50.914;13.858;2023-05-21T07:38:15;97935.47;;;23.52;93.71
36190;BME280;22232;50.914;13.858;2023-05-21T07:40:43;97941.75;;;23.53;98.44
36190;BME280;22232;50.914;13.858;2023-05-21T07:43:11;97943.97;;;23.51;97.97
36190;BME280;22232;50.914;13.858;2023-05-21T07:45:41;97952.88;;;23.65;97.38
36190;BME280;22232;50.914;13.858;2023-05-21T07:48:09;97941.72;;;23.44;99.11
36190;BME280;22232;50.914;13.858;2023-05-21T07:50:48;97946.16;;;24.02;97.05
36190;BME280;22232;50.914;13.858;2023-05-21T07:53:19;97946.03;;;24.16;99.93
36190;BME280;22232;50.914;13.858;2023-05-21T07:55:46;97953.91;;;24.18;99.36
36190;BME280;22232;50.914;13.858;2023-05-21T07:58:17;97947.09;;;23.89;99.96
36190;BME280;22232;50.914;13.858;2023-05-21T08:00:47;97951.38;;;23.81;100.00
36190;BME280;22232;50.914;13.858;2023-05-21T08:03:17;97952.66;;;23.84;97.25
36190;BME280;22232;50.914;13.858;2023-05-21T08:09:51;97950.84;;;24.19;96.86
36190;BME280;22232;50.914;13.858;2023-05-21T08:12:20;97953.06;;;24.48;90.22
36190;BME280;22232;50.914;13.858;2023-05-21T08:14:48;97956.31;;;24.85;92.13
36190;BME280;22232;50.914;13.858;2023-05-21T08:17:16;97953.09;;;25.01;89.28
36190;BME280;22232;50.914;13.858;2023-05-21T08:19:43;97946.38;;;25.24;82.72
36190;BME280;22232;50.914;13.858;2023-05-21T08:22:11;97954.34;;;25.47;89.02
36190;BME280;22232;50.914;13.858;2023-05-21T08:24:43;97964.03;;;25.35;86.69
36190;BME280;22232;50.914;13.858;2023-05-21T08:27:11;97950.00;;;25.54;93.06
36190;BME280;22232;50.914;13.858;2023-05-21T08:29:39;97959.50;;;25.48;79.48
36190;BME280;22232;50.914;13.858;2023-05-21T08:32:07;97954.34;;;25.47;77.66
36190;BME280;22232;50.914;13.858;2023-05-21T08:34:36;97950.84;;;25.29;79.87
36190;BME280;22232;50.914;13.858;2023-05-21T08:37:20;97957.41;;;25.10;83.72
36190;BME280;22232;50.914;13.858;2023-05-21T08:40:01;97960.78;;;25.07;81.84
36190;BME280;22232;50.914;13.858;2023-05-21T08:42:46;97966.44;;;25.11;81.39
36190;BME280;22232;50.914;13.858;2023-05-21T08:45:26;97965.81;;;25.14;80.79
36190;BME280;22232;50.914;13.858;2023-05-21T08:47:58;97972.34;;;25.04;76.10
36190;BME280;22232;50.914;13.858;2023-05-21T08:50:30;97968.19;;;25.42;79.00
36190;BME280;22232;50.914;13.858;2023-05-21T08:53:01;97969.53;;;25.74;78.21
36190;BME280;22232;50.914;13.858;2023-05-21T08:55:42;97959.19;;;26.05;88.63
36190;BME280;22232;50.914;13.858;2023-05-21T08:58:11;97965.78;;;26.34;88.08
36190;BME280;22232;50.914;13.858;2023-05-21T09:00:41;97959.59;;;26.46;89.67
36190;BME280;22232;50.914;13.858;2023-05-21T09:03:09;97964.72;;;26.47;88.11
36190;BME280;22232;50.914;13.858;2023-05-21T09:05:43;97965.41;;;26.44;85.74
36190;BME280;22232;50.914;13.858;2023-05-21T09:08:26;97959.91;;;26.53;91.37
36190;BME280;22232;50.914;13.858;2023-05-21T09:11:01;97959.59;;;26.46;78.49
36190;BME280;22232;50.914;13.858;2023-05-21T09:13:36;97956.88;;;26.46;88.17
36190;BME280;22232;50.914;13.858;2023-05-21T09:16:12;97956.06;;;26.16;76.11
36190;BME280;22232;50.914;13.858;2023-05-21T09:18:39;97964.38;;;26.28;72.78
36190;BME280;22232;50.914;13.858;2023-05-21T09:21:29;97958.72;;;26.63;67.87
36190;BME280;22232;50.914;13.858;2023-05-21T09:24:09;97969.66;;;26.63;66.26
36190;BME280;22232;50.914;13.858;2023-05-21T09:26:41;97963.19;;;26.38;66.50
36190;BME280;22232;50.914;13.858;2023-05-21T09:29:12;97967.19;;;26.49;66.45
36190;BME280;22232;50.914;13.858;2023-05-21T09:31:43;97962.47;;;26.58;68.22
36190;BME280;22232;50.914;13.858;2023-05-21T09:34:14;97964.19;;;26.84;63.45
36190;BME280;22232;50.914;13.858;2023-05-21T09:36:44;97968.75;;;26.80;60.68
36190;BME280;22232;50.914;13.858;2023-05-21T09:39:26;97966.88;;;26.92;65.12
36190;BME280;22232;50.914;13.858;2023-05-21T09:41:58;97959.50;;;27.05;56.51
36190;BME280;22232;50.914;13.858;2023-05-21T09:44:26;97959.06;;;27.03;60.26
36190;BME280;22232;50.914;13.858;2023-05-21T09:46:57;97953.06;;;26.89;64.00
36190;BME280;22232;50.914;13.858;2023-05-21T09:49:26;97959.69;;;26.28;68.49
36190;BME280;22232;50.914;13.858;2023-05-21T09:51:56;97950.75;;;25.72;74.31
36190;BME280;22232;50.914;13.858;2023-05-21T09:54:25;97950.63;;;25.69;77.06
36190;BME280;22232;50.914;13.858;2023-05-21T09:56:59;97947.22;;;26.19;72.78
36190;BME280;22232;50.914;13.858;2023-05-21T09:59:35;97941.03;;;26.81;66.63
36190;BME280;22232;50.914;13.858;2023-05-21T10:02:19;97938.50;;;26.76;68.27
36190;BME280;22232;50.914;13.858;2023-05-21T10:04:49;97940.78;;;26.23;70.54
36190;BME280;22232;50.914;13.858;2023-05-21T10:07:18;97946.28;;;25.59;73.92
36190;BME280;22232;50.914;13.858;2023-05-21T10:09:54;97940.03;;;25.58;74.12
36190;BME280;22232;50.914;13.858;2023-05-21T10:12:23;97939.13;;;25.93;77.12
36190;BME280;22232;50.914;13.858;2023-05-21T10:14:59;97944.53;;;26.40;75.04
36190;BME280;22232;50.914;13.858;2023-05-21T10:17:29;97948.13;;;26.61;73.70
36190;BME280;22232;50.914;13.858;2023-05-21T10:19:58;97944.78;;;26.97;62.17
36190;BME280;22232;50.914;13.858;2023-05-21T10:22:27;97945.16;;;27.29;61.86
36190;BME280;22232;50.914;13.858;2023-05-21T10:24:56;97942.88;;;27.64;59.95
36190;BME280;22232;50.914;13.858;2023-05-21T10:27:23;97937.28;;;27.61;59.65
36190;BME280;22232;50.914;13.858;2023-05-21T10:29:53;97950.75;;;27.33;58.15
36190;BME280;22232;50.914;13.858;2023-05-21T10:32:25;97949.25;;;26.60;63.79
36190;BME280;22232;50.914;13.858;2023-05-21T10:34:53;97944.94;;;25.91;75.42
36190;BME280;22232;50.914;13.858;2023-05-21T10:37:25;97942.47;;;25.43;80.63
36190;BME280;22232;50.914;13.858;2023-05-21T10:39:54;97947.97;;;25.08;79.02
36190;BME280;22232;50.914;13.858;2023-05-21T10:54:46;97942.84;;;22.48;100.00
36190;BME280;22232;50.914;13.858;2023-05-21T10:56:48;97944.38;;;22.13;100.00
36190;BME280;22232;50.914;13.858;2023-05-21T11:01:58;97935.81;;;21.92;100.00
36190;BME280;22232;50.914;13.858;2023-05-21T11:04:26;97941.56;;;22.04;100.00
36190;BME280;22232;50.914;13.858;2023-05-21T11:06:54;97936.91;;;22.05;100.00
36190;BME280;22232;50.914;13.858;2023-05-21T11:09:25;97938.25;;;22.21;100.00
36190;BME280;22232;50.914;13.858;2023-05-21T11:11:57;97935.19;;;22.09;100.00
36190;BME280;22232;50.914;13.858;2023-05-21T11:14:35;97928.41;;;22.25;100.00
36190;BME280;22232;50.914;13.858;2023-05-21T11:19:37;97935.91;;;22.42;100.00
36190;BME280;22232;50.914;13.858;2023-05-21T11:22:07;97922.09;;;22.52;100.00
36190;BME280;22232;50.914;13.858;2023-05-21T11:24:39;97916.25;;;22.45;100.00
36190;BME280;22232;50.914;13.858;2023-05-21T11:27:07;97923.81;;;22.48;100.00
36190;BME280;22232;50.914;13.858;2023-05-21T11:29:38;97920.88;;;22.58;100.00
36190;BME280;22232;50.914;13.858;2023-05-21T11:32:08;97917.38;;;22.80;100.00
36190;BME280;22232;50.914;13.858;2023-05-21T11:34:46;97928.53;;;23.15;100.00
36190;BME280;22232;50.914;13.858;2023-05-21T11:39:45;97921.38;;;22.97;100.00
36190;BME280;22232;50.914;13.858;2023-05-21T11:42:32;97922.75;;;22.72;100.00
36190;BME280;22232;50.914;13.858;2023-05-21T11:45:01;97935.13;;;22.64;100.00
36190;BME280;22232;50.914;13.858;2023-05-21T11:47:29;97929.66;;;22.55;100.00
36190;BME280;22232;50.914;13.858;2023-05-21T11:50:00;97924.41;;;22.81;100.00
36190;BME280;22232;50.914;13.858;2023-05-21T11:52:29;97918.44;;;23.07;100.00
36190;BME280;22232;50.914;13.858;2023-05-21T11:54:57;97924.03;;;23.33;100.00
36190;BME280;22232;50.914;13.858;2023-05-21T11:57:27;97928.72;;;23.19;91.07
36190;BME280;22232;50.914;13.858;2023-05-21T11:59:59;97926.13;;;23.36;91.71
36190;BME280;22232;50.914;13.858;2023-05-21T12:02:31;97923.19;;;23.01;94.75
36190;BME280;22232;50.914;13.858;2023-05-21T12:04:59;97932.41;;;22.64;97.94
36190;BME280;22232;50.914;13.858;2023-05-21T12:07:27;97925.81;;;22.42;100.00
36190;BME280;22232;50.914;13.858;2023-05-21T12:09:56;97922.72;;;22.35;100.00
36190;BME280;22232;50.914;13.858;2023-05-21T12:12:25;97929.09;;;22.31;100.00
36190;BME280;22232;50.914;13.858;2023-05-21T12:15:01;97935.94;;;22.28;100.00
36190;BME280;22232;50.914;13.858;2023-05-21T12:17:29;97934.13;;;22.24;100.00
36190;BME280;22232;50.914;13.858;2023-05-21T12:19:58;97934.00;;;22.01;100.00
36190;BME280;22232;50.914;13.858;2023-05-21T12:22:25;97921.53;;;22.14;100.00
36190;BME280;22232;50.914;13.858;2023-05-21T12:24:54;97925.84;;;22.15;100.00
36190;BME280;22232;50.914;13.858;2023-05-21T12:27:24;97931.72;;;22.22;100.00
36190;BME280;22232;50.914;13.858;2023-05-21T12:29:54;97932.31;;;22.19;100.00
36190;BME280;22232;50.914;13.858;2023-05-21T12:32:26;97931.19;;;22.34;100.00
36190;BME280;22232;50.914;13.858;2023-05-21T12:34:55;97934.31;;;22.41;100.00
36190;BME280;22232;50.914;13.858;2023-05-21T12:37:23;97921.50;;;22.55;100.00
36190;BME280;22232;50.914;13.858;2023-05-21T12:39:59;97919.91;;;22.77;100.00
36190;BME280;22232;50.914;13.858;2023-05-21T12:42:28;97930.81;;;22.77;100.00
36190;BME280;22232;50.914;13.858;2023-05-21T12:44:57;97914.63;;;22.94;100.00
36190;BME280;22232;50.914;13.858;2023-05-21T12:47:26;97909.13;;;23.08;100.00
36190;BME280;22232;50.914;13.858;2023-05-21T12:49:56;97913.88;;;23.25;100.00
36190;BME280;22232;50.914;13.858;2023-05-21T12:52:28;97909.44;;;23.06;100.00
36190;BME280;22232;50.914;13.858;2023-05-21T12:54:56;97912.47;;;23.05;100.00
36190;BME280;22232;50.914;13.858;2023-05-21T12:57:34;97909.44;;;23.06;100.00
36190;BME280;22232;50.914;13.858;2023-05-21T13:00:04;97898.66;;;23.24;100.00
36190;BME280;22232;50.914;13.858;2023-05-21T13:02:37;97896.63;;;23.61;100.00
36190;BME280;22232;50.914;13.858;2023-05-21T13:05:07;97884.94;;;23.60;100.00
36190;BME280;22232;50.914;13.858;2023-05-21T13:07:37;97887.09;;;23.72;100.00
36190;BME280;22232;50.914;13.858;2023-05-21T13:10:05;97892.72;;;23.75;100.00
36190;BME280;22232;50.914;13.858;2023-05-21T13:12:33;97893.44;;;23.58;100.00
36190;BME280;22232;50.914;13.858;2023-05-21T13:15:03;97888.97;;;23.31;100.00
36190;BME280;22232;50.914;13.858;2023-05-21T13:17:31;97880.03;;;23.40;100.00
36190;BME280;22232;50.914;13.858;2023-05-21T13:22:48;97882.16;;;23.74;100.00
36190;BME280;22232;50.914;13.858;2023-05-21T13:25:17;97877.53;;;23.83;100.00
36190;BME280;22232;50.914;13.858;2023-05-21T13:27:47;97876.28;;;23.98;99.59